createdAt,value
2023-03-05T00:29:57.747Z,92674.00
2023-03-05T00:30:57.914Z,92674.00
2023-03-05T00:31:57.903Z,92674.00
2023-03-05T00:32:57.988Z,92674.00
2023-03-05T00:33:58.056Z,92672.00
2023-03-05T00:34:58.133Z,92674.00
2023-03-05T00:35:58.239Z,92674.00
2023-03-05T00:36:58.399Z,92674.00
2023-03-05T00:37:58.368Z,92672.00
2023-03-05T00:38:58.464Z,92672.00
2023-03-05T00:39:58.629Z,92670.00
2023-03-05T00:40:58.601Z,92666.00
2023-03-05T00:41:58.675Z,92670.00
2023-03-05T00:42:58.759Z,92664.00
2023-03-05T00:43:58.847Z,92664.00
2023-03-05T00:44:58.914Z,92666.00
2023-03-05T00:45:59.001Z,92664.00
2023-03-05T00:47:59.147Z,92664.00
2023-03-05T00:48:59.222Z,92662.00
2023-03-05T00:49:59.298Z,92662.00
2023-03-05T00:50:59.373Z,92662.00
2023-03-05T02:35:07.709Z,92605.00
2023-03-05T02:36:07.821Z,92605.00
2023-03-05T02:37:07.889Z,92603.00
2023-03-05T02:38:07.978Z,92601.00
2023-03-05T02:39:08.072Z,92601.00
2023-03-05T02:40:08.150Z,92601.00
2023-03-05T02:41:08.243Z,92599.00
2023-03-05T02:42:08.302Z,92599.00
2023-03-05T02:43:08.393Z,92599.00
2023-03-05T02:44:08.482Z,92599.00
2023-03-05T02:45:08.559Z,92598.00
2023-03-05T02:46:08.666Z,92598.00
2023-03-05T02:47:08.720Z,92598.00
2023-03-05T02:48:08.819Z,92598.00
2023-03-05T02:49:08.890Z,92598.00
2023-03-05T02:50:08.970Z,92599.00
2023-03-05T02:51:09.058Z,92598.00
2023-03-05T02:52:09.145Z,92596.00
2023-03-05T02:53:09.231Z,92596.00
2023-03-05T02:55:09.402Z,92584.00
2023-03-05T02:56:09.534Z,92584.00
2023-03-05T06:28:27.833Z,92533.00
2023-03-05T06:37:27.745Z,92531.00
2023-03-05T06:38:27.823Z,92535.00
2023-03-05T06:39:27.912Z,92533.00
2023-03-05T06:40:28.011Z,92531.00
2023-03-05T06:41:28.097Z,92533.00
2023-03-05T06:42:28.149Z,92531.00
2023-03-05T06:43:28.231Z,92533.00
2023-03-05T06:44:28.317Z,92531.00
2023-03-05T06:45:28.402Z,92531.00
2023-03-05T06:46:28.484Z,92531.00
2023-03-05T06:47:28.562Z,92531.00
2023-03-05T06:48:28.641Z,92531.00
2023-03-05T06:49:28.727Z,92533.00
2023-03-05T06:50:28.808Z,92531.00
2023-03-05T06:51:28.897Z,92533.00
2023-03-05T06:52:28.970Z,92533.00
2023-03-05T06:53:29.043Z,92535.00
2023-03-05T06:54:29.118Z,92533.00
2023-03-05T06:55:29.203Z,92533.00
2023-03-05T06:56:29.290Z,92535.00
2023-03-05T06:57:29.365Z,92535.00
2023-03-05T06:58:29.448Z,92535.00
2023-03-05T06:59:29.542Z,92535.00
2023-03-05T07:00:29.679Z,92537.00
2023-03-05T07:01:29.763Z,92539.00
2023-03-05T07:02:29.812Z,92541.00
2023-03-05T07:03:29.861Z,92539.00
2023-03-05T07:04:29.951Z,92539.00
2023-03-05T07:05:30.030Z,92535.00
2023-03-05T07:06:30.122Z,92537.00
2023-03-05T07:07:30.192Z,92533.00
2023-03-05T07:08:30.280Z,92531.00
2023-03-05T07:09:30.352Z,92535.00
2023-03-05T07:10:30.490Z,92535.00
2023-03-05T07:11:30.538Z,92535.00
2023-03-05T07:12:30.606Z,92537.00
2023-03-05T07:13:30.687Z,92539.00
2023-03-05T07:14:30.761Z,92537.00
2023-03-05T07:15:30.884Z,92539.00
2023-03-05T07:16:30.953Z,92537.00
2023-03-05T07:17:30.997Z,92537.00
2023-03-05T07:18:31.082Z,92535.00
2023-03-05T07:19:31.158Z,92533.00
2023-03-05T07:20:31.241Z,92533.00
2023-03-05T07:21:31.360Z,92531.00
2023-03-05T07:22:31.406Z,92531.00
2023-03-05T07:23:31.482Z,92527.00
2023-03-05T07:24:31.576Z,92525.00
2023-03-05T07:25:31.643Z,92525.00
2023-03-05T07:26:31.843Z,92523.00
2023-03-05T07:27:31.815Z,92519.00
2023-03-05T07:28:31.888Z,92519.00
2023-03-05T07:29:32.038Z,92515.00
2023-03-05T07:30:32.040Z,92514.00
2023-03-05T07:31:32.398Z,92514.00
2023-03-05T07:32:32.245Z,92514.00
2023-03-05T07:33:32.263Z,92510.00
2023-03-05T07:34:32.362Z,92510.00
2023-03-05T07:35:32.458Z,92510.00
2023-03-05T07:36:32.526Z,92508.00
2023-03-05T07:37:32.621Z,92506.00
2023-03-05T07:38:32.701Z,92504.00
2023-03-05T07:39:32.766Z,92504.00
2023-03-05T07:40:32.847Z,92504.00
2023-03-05T07:41:32.971Z,92502.00
2023-03-05T07:42:33.031Z,92500.00
2023-03-05T07:43:33.096Z,92498.00
2023-03-05T07:45:33.248Z,92494.00
2023-03-05T07:46:33.400Z,92496.00
2023-03-05T07:47:33.404Z,92490.00
2023-03-05T07:48:33.473Z,92490.00
2023-03-05T07:49:33.569Z,92490.00
2023-03-05T07:50:33.640Z,92492.00
2023-03-05T08:47:37.732Z,92415.00
2023-03-05T08:48:37.812Z,92415.00
2023-03-05T08:49:37.869Z,92413.00
2023-03-05T08:50:39.016Z,92412.00
2023-03-05T08:51:38.003Z,92410.00
2023-03-05T08:52:38.076Z,92408.00
2023-03-05T08:53:38.149Z,92408.00
2023-03-05T08:54:38.203Z,92406.00
2023-03-05T08:55:38.273Z,92404.00
2023-03-05T08:56:38.331Z,92402.00
2023-03-05T08:57:38.403Z,92400.00
2023-03-05T08:58:38.448Z,92400.00
2023-03-05T08:59:38.525Z,92396.00
2023-03-05T09:00:38.584Z,92396.00
2023-03-05T09:01:38.686Z,92392.00
2023-03-05T09:02:38.742Z,92390.00
2023-03-05T09:03:38.798Z,92388.00
2023-03-05T09:04:38.861Z,92386.00
2023-03-05T11:29:47.766Z,92065.00
2023-03-05T11:30:47.861Z,92063.00
2023-03-05T11:31:47.917Z,92061.00
2023-03-05T11:32:47.980Z,92054.00
2023-03-05T11:33:48.036Z,92056.00
2023-03-05T11:34:48.087Z,92054.00
2023-03-05T11:35:48.229Z,92050.00
2023-03-05T11:36:48.240Z,92048.00
2023-03-05T11:37:48.409Z,92044.00
2023-03-05T11:38:48.302Z,92044.00
2023-03-05T11:39:48.365Z,92044.00
2023-03-05T11:40:48.421Z,92036.00
2023-03-05T11:41:48.500Z,92034.00
2023-03-05T11:42:48.531Z,92030.00
2023-03-05T11:43:48.594Z,92030.00
2023-03-05T11:44:48.653Z,92028.00
2023-03-05T11:45:48.796Z,92026.00
2023-03-05T11:46:48.765Z,92022.00
2023-03-05T11:47:48.810Z,92018.00
2023-03-05T11:48:48.863Z,92014.00
2023-03-05T11:49:48.941Z,92012.00
2023-03-05T11:50:49.014Z,92010.00
2023-03-05T11:51:49.057Z,92008.00
2023-03-05T11:52:49.114Z,92006.00
2023-03-05T11:53:49.182Z,92001.00
2023-03-05T11:54:49.234Z,92002.00
2023-03-05T11:55:49.300Z,92002.00
2023-03-05T11:56:49.560Z,91999.00
2023-03-05T11:57:49.402Z,91997.00
2023-03-05T11:58:49.464Z,91991.00
2023-03-05T11:59:49.519Z,91991.00
2023-03-05T12:00:49.613Z,91985.00
2023-03-05T12:01:49.660Z,91987.00
2023-03-05T12:02:49.847Z,91985.00
2023-03-05T12:03:49.826Z,91985.00
2023-03-05T12:04:49.828Z,91983.00
2023-03-05T12:05:49.946Z,91979.00
2023-03-05T12:06:49.961Z,91977.00
2023-03-05T12:07:50.027Z,91973.00
2023-03-05T12:08:50.098Z,91973.00
2023-03-05T12:09:50.194Z,91969.00
2023-03-05T12:10:50.214Z,91967.00
2023-03-05T12:11:50.284Z,91965.00
2023-03-05T12:12:50.337Z,91963.00
2023-03-05T12:13:50.401Z,91961.00
2023-03-05T12:14:50.464Z,91957.00
2023-03-05T12:15:50.541Z,91955.00
2023-03-05T12:16:50.613Z,91948.00
2023-03-05T12:17:50.650Z,91948.00
2023-03-05T12:18:50.719Z,91946.00
2023-03-05T12:19:50.771Z,91948.00
2023-03-05T12:20:50.869Z,91944.00
2023-03-05T12:21:50.909Z,91944.00
2023-03-05T12:22:50.948Z,91942.00
2023-03-05T12:23:50.998Z,91934.00
2023-03-05T12:24:51.056Z,91932.00
2023-03-05T12:25:51.122Z,91930.00
2023-03-05T12:26:51.173Z,91932.00
2023-03-05T12:27:51.234Z,91928.00
2023-03-05T12:28:51.299Z,91928.00
2023-03-05T12:29:51.347Z,91924.00
2023-03-05T12:30:51.391Z,91922.00
2023-03-05T12:31:51.502Z,91920.00
2023-03-05T12:32:51.506Z,91916.00
2023-03-05T12:33:51.570Z,91916.00
2023-03-05T12:34:51.622Z,91914.00
2023-03-05T12:35:51.741Z,91908.00
2023-03-05T12:36:51.728Z,91910.00
2023-03-05T12:37:51.815Z,91908.00
2023-03-05T12:38:51.867Z,91904.00
2023-03-05T12:39:51.898Z,91902.00
2023-03-05T12:40:51.956Z,91900.00
2023-03-05T12:41:52.008Z,91902.00
2023-03-05T12:42:52.082Z,91900.00
2023-03-05T12:43:52.133Z,91899.00
2023-03-05T12:44:52.181Z,91899.00
2023-03-05T12:45:52.235Z,91897.00
2023-03-05T12:46:52.398Z,91895.00
2023-03-05T12:47:52.373Z,91891.00
2023-03-05T12:48:52.480Z,91887.00
2023-03-05T12:49:52.513Z,91885.00
2023-03-05T12:50:52.547Z,91889.00
2023-03-05T12:51:52.605Z,91885.00
2023-03-05T12:52:52.675Z,91887.00
2023-03-05T12:53:52.730Z,91883.00
2023-03-05T12:54:52.778Z,91879.00
2023-03-05T12:55:52.834Z,91881.00
2023-03-05T12:56:52.893Z,91877.00
2023-03-05T12:57:52.959Z,91877.00
2023-03-05T12:58:53.010Z,91873.00
2023-03-05T12:59:53.076Z,91871.00
2023-03-05T13:00:53.144Z,91869.00
2023-03-05T13:01:53.193Z,91869.00
2023-03-05T13:02:53.248Z,91865.00
2023-03-05T13:03:53.383Z,91867.00
2023-03-05T13:04:53.382Z,91865.00
2023-03-05T13:05:53.434Z,91865.00
2023-03-05T13:06:53.483Z,91867.00
2023-03-05T13:07:53.542Z,91865.00
2023-03-05T13:08:53.593Z,91865.00
2023-03-05T13:09:53.649Z,91861.00
2023-03-05T13:10:53.695Z,91861.00
2023-03-05T13:11:53.810Z,91859.00
2023-03-05T13:12:53.818Z,91853.00
2023-03-05T13:13:53.891Z,91855.00
2023-03-05T13:14:53.929Z,91852.00
2023-03-05T13:15:54.207Z,91848.00
2023-03-05T13:16:54.040Z,91846.00
2023-03-05T13:17:54.103Z,91848.00
2023-03-05T13:18:54.150Z,91848.00
2023-03-05T13:19:54.211Z,91852.00
2023-03-05T13:20:54.274Z,91846.00
2023-03-05T13:21:54.341Z,91844.00
2023-03-05T13:22:54.400Z,91842.00
2023-03-05T13:23:54.451Z,91840.00
2023-03-05T13:24:54.514Z,91840.00
2023-03-05T13:25:54.568Z,91840.00
2023-03-05T13:26:54.629Z,91836.00
2023-03-05T13:27:54.691Z,91838.00
2023-03-05T13:28:54.764Z,91838.00
2023-03-05T13:29:54.828Z,91838.00
2023-03-05T13:30:54.893Z,91838.00
2023-03-05T13:31:54.999Z,91838.00
2023-03-05T13:32:55.024Z,91830.00
2023-03-05T13:33:55.067Z,91824.00
2023-03-05T13:34:55.129Z,91815.00
2023-03-05T13:35:55.232Z,91822.00
2023-03-05T13:36:55.252Z,91822.00
2023-03-05T13:37:55.317Z,91824.00
2023-03-05T13:38:55.376Z,91822.00
2023-03-05T13:39:55.429Z,91822.00
2023-03-05T13:40:55.825Z,91811.00
2023-03-05T13:41:55.541Z,91809.00
2023-03-05T13:42:55.596Z,91805.00
2023-03-05T13:43:55.688Z,91807.00
2023-03-05T13:44:55.735Z,91805.00
2023-03-05T13:45:55.876Z,91805.00
2023-03-05T13:46:58.126Z,91803.00
2023-03-05T13:47:55.892Z,91801.00
2023-03-05T13:48:55.900Z,91801.00
2023-03-05T13:49:55.917Z,91801.00
2023-03-05T13:50:55.948Z,91799.00
2023-03-05T13:51:55.965Z,91797.00
2023-03-05T13:52:57.820Z,91793.00
2023-03-05T13:53:56.013Z,91793.00
2023-03-05T13:54:56.032Z,91787.00
2023-03-05T13:55:56.069Z,91791.00
2023-03-05T13:56:56.107Z,91793.00
2023-03-05T13:57:56.127Z,91795.00
2023-03-05T13:58:56.137Z,91795.00
2023-03-05T13:59:56.168Z,91799.00
2023-03-05T14:00:56.220Z,91799.00
2023-03-05T14:01:56.212Z,91799.00
2023-03-05T14:02:58.613Z,91801.00
2023-03-05T14:03:56.271Z,91799.00
2023-03-05T14:04:56.405Z,91801.00
2023-03-05T14:05:56.315Z,91803.00
2023-03-05T14:06:56.344Z,91799.00
2023-03-05T15:00:57.703Z,91740.00
2023-03-05T15:01:57.733Z,91748.00
2023-03-05T15:02:57.956Z,91746.00
2023-03-05T15:03:57.781Z,91742.00
2023-03-05T15:04:57.833Z,91740.00
2023-03-05T15:05:57.915Z,91736.00
2023-03-05T15:06:58.003Z,91742.00
2023-03-05T15:07:58.006Z,91740.00
2023-03-05T15:08:58.061Z,91738.00
2023-03-05T15:09:58.120Z,91734.00
2023-03-05T15:10:58.167Z,91734.00
2023-03-05T15:11:58.232Z,91734.00
2023-03-05T15:12:58.300Z,91734.00
2023-03-05T15:13:58.370Z,91742.00
2023-03-05T15:14:58.414Z,91744.00
2023-03-05T15:15:58.499Z,91736.00
2023-03-05T15:16:58.529Z,91734.00
2023-03-05T15:17:58.580Z,91732.00
2023-03-05T15:18:58.650Z,91734.00
2023-03-05T15:19:58.703Z,91732.00
2023-03-05T15:20:58.767Z,91732.00
2023-03-05T15:21:58.829Z,91748.00
2023-03-05T15:22:58.878Z,91728.00
2023-03-05T15:23:58.942Z,91734.00
2023-03-05T15:24:59.015Z,91738.00
2023-03-05T15:25:59.078Z,91736.00
2023-03-05T15:26:59.150Z,91740.00
2023-03-05T15:27:59.212Z,91734.00
2023-03-05T15:28:59.274Z,91742.00
2023-03-05T15:29:59.336Z,91732.00
2023-03-05T15:31:00.316Z,91724.00
2023-03-05T15:31:59.475Z,91726.00
2023-03-05T15:32:59.582Z,91734.00
2023-03-05T15:33:59.580Z,91732.00
2023-03-05T15:34:59.651Z,91724.00
2023-03-05T15:35:59.746Z,91724.00
2023-03-05T15:36:59.770Z,91724.00
2023-03-05T15:37:59.837Z,91730.00
2023-03-05T15:38:59.897Z,91732.00
2023-03-05T15:39:59.960Z,91724.00
2023-03-05T15:41:01.963Z,91721.00
2023-03-05T15:42:00.105Z,91721.00
2023-03-05T15:43:00.202Z,91724.00
2023-03-05T15:44:00.226Z,91724.00
2023-03-05T15:45:00.265Z,91724.00
2023-03-05T15:46:00.412Z,91724.00
2023-03-05T15:47:00.408Z,91719.00
2023-03-05T15:54:00.857Z,91717.00
2023-03-05T17:43:07.811Z,91824.00
2023-03-05T17:54:08.553Z,91838.00
2023-03-05T20:08:17.758Z,91912.00
2023-03-05T20:09:17.861Z,91912.00
2023-03-05T20:10:17.926Z,91912.00
2023-03-05T20:11:17.985Z,91914.00
2023-03-05T20:12:18.076Z,91916.00
2023-03-05T20:13:18.138Z,91918.00
2023-03-05T20:14:18.204Z,91918.00
2023-03-05T20:15:18.272Z,91916.00
2023-03-05T20:16:18.391Z,91914.00
2023-03-05T20:17:18.421Z,91912.00
2023-03-05T20:18:18.489Z,91914.00
2023-03-05T20:19:18.566Z,91914.00
2023-03-05T20:20:18.652Z,91914.00
2023-03-05T20:21:18.700Z,91916.00
2023-03-05T20:22:18.785Z,91914.00
2023-03-05T20:23:18.836Z,91914.00
2023-03-05T20:24:18.917Z,91914.00
2023-03-05T20:25:18.996Z,91912.00
2023-03-05T20:26:19.064Z,91914.00
2023-03-05T20:27:19.134Z,91912.00
2023-03-05T20:28:19.225Z,91918.00
2023-03-05T20:29:19.290Z,91914.00
2023-03-05T20:30:19.378Z,91916.00
2023-03-05T20:31:19.515Z,91916.00
2023-03-05T20:32:19.550Z,91916.00
2023-03-05T20:33:19.574Z,91916.00
2023-03-05T20:34:19.659Z,91912.00
2023-03-05T20:35:19.832Z,91910.00
2023-03-05T20:36:19.806Z,91910.00
2023-03-05T20:37:19.876Z,91910.00
2023-03-05T20:38:19.950Z,91910.00
2023-03-05T22:22:27.749Z,91859.00
2023-03-05T22:23:27.830Z,91859.00
2023-03-05T22:24:27.898Z,91857.00
2023-03-05T22:25:27.980Z,91857.00
2023-03-05T22:26:28.049Z,91855.00
2023-03-05T22:27:28.124Z,91859.00
2023-03-05T22:28:28.202Z,91859.00
2023-03-05T22:29:28.272Z,91861.00
2023-03-05T22:30:28.414Z,91857.00
2023-03-05T22:31:28.436Z,91857.00
2023-03-05T22:32:28.553Z,91859.00
2023-03-05T22:33:28.595Z,91857.00
2023-03-05T22:34:28.666Z,91859.00
2023-03-05T22:35:28.758Z,91857.00
2023-03-05T22:36:28.813Z,91857.00
2023-03-05T22:37:28.889Z,91857.00
2023-03-05T22:38:28.963Z,91855.00
2023-03-05T22:39:29.041Z,91855.00
2023-03-05T22:40:29.118Z,91855.00
2023-03-05T22:41:29.197Z,91853.00
2023-03-05T22:42:29.257Z,91852.00
2023-03-05T22:43:29.335Z,91852.00
2023-03-05T22:44:29.408Z,91850.00
2023-03-05T22:45:29.476Z,91852.00
2023-03-05T22:46:29.574Z,91850.00
2023-03-05T22:47:29.629Z,91850.00
2023-03-05T22:48:29.715Z,91850.00
2023-03-05T22:49:29.794Z,91852.00
2023-03-05T22:50:29.872Z,91852.00
2023-03-05T22:51:29.939Z,91850.00
2023-03-05T22:52:30.020Z,91848.00
2023-03-05T22:53:30.096Z,91848.00
2023-03-05T22:54:30.170Z,91846.00
2023-03-05T22:55:30.254Z,91848.00
2023-03-05T22:56:30.327Z,91844.00
2023-03-05T22:57:30.410Z,91844.00
2023-03-05T22:58:30.478Z,91844.00
2023-03-05T22:59:30.563Z,91844.00
2023-03-05T23:00:30.638Z,91842.00
2023-03-05T23:01:30.720Z,91842.00
2023-03-05T23:02:30.806Z,91844.00
2023-03-05T23:03:30.951Z,91846.00
2023-03-05T23:04:31.035Z,91846.00
2023-03-05T23:05:31.038Z,91846.00
2023-03-05T23:06:31.145Z,91842.00
2023-03-05T23:07:31.203Z,91842.00
2023-03-05T23:08:31.260Z,91842.00
2023-03-05T23:09:31.348Z,91844.00
2023-03-05T23:10:31.437Z,91842.00
2023-03-05T23:11:31.598Z,91842.00
2023-03-05T23:12:31.595Z,91842.00
2023-03-05T23:13:31.688Z,91844.00
2023-03-05T23:14:31.759Z,91844.00
2023-03-05T23:15:32.853Z,91844.00
2023-03-05T23:16:31.918Z,91846.00
2023-03-05T23:17:32.002Z,91844.00
2023-03-05T23:18:32.066Z,91842.00
2023-03-05T23:19:32.157Z,91842.00
2023-03-05T23:20:32.255Z,91838.00
2023-03-05T23:21:32.302Z,91842.00
2023-03-05T23:22:32.380Z,91842.00
